Time;durP1;ratioP1;P1;durP2;ratioP2;P2;SDS_P1;SDS_P2;PMS_P1;PMS_P2;Temp;Humidity;BMP_temperature;BMP_pressure;BME280_temperature;BME280_humidity;BME280_pressure;Samples;Min_cycle;Max_cycle;Signal;HPM_P1;HPM_P2
2021/12/23 00:00:05;;;;;;;18.40;8.75;;;;;;;8.27;45.36;101721.53;4983672;28;20443;-81
2021/12/23 00:02:53;;;;;;;19.25;11.95;;;;;;;8.41;45.89;101723.44;4981918;28;20050;-81
2021/12/23 00:05:38;;;;;;;23.23;12.38;;;;;;;8.79;46.75;101729.22;4981844;28;20410;-81
2021/12/23 00:08:23;;;;;;;15.60;8.05;;;;;;;8.83;47.50;101731.13;4985083;28;20042;-80
2021/12/23 00:11:08;;;;;;;18.77;9.15;;;;;;;8.61;48.71;101727.16;4988860;28;20107;-81
2021/12/23 00:14:04;;;;;;;16.23;8.70;;;;;;;8.61;48.92;101717.13;4987188;28;20058;-81
2021/12/23 00:17:06;;;;;;;24.48;12.82;;;;;;;8.88;45.94;101711.31;4990632;28;20065;-80
2021/12/23 00:25:52;;;;;;;14.77;8.70;;;;;;;8.88;45.44;101724.88;4982137;28;20047;-81
2021/12/23 00:28:38;;;;;;;19.83;10.35;;;;;;;8.85;43.59;101715.38;4987779;28;20042;-81
2021/12/23 00:31:23;;;;;;;;;;;;;;;8.41;46.34;101714.47;4992961;28;20050;-81
2021/12/23 00:34:09;;;;;;;17.50;9.38;;;;;;;8.24;48.42;101716.66;4995289;28;20246;-81
2021/12/23 00:36:57;;;;;;;18.70;10.10;;;;;;;8.32;50.06;101710.72;4986286;28;20050;-80
2021/12/23 00:39:44;;;;;;;19.73;9.82;;;;;;;8.12;49.49;101708.84;4981926;28;20046;-81
2021/12/23 00:42:31;;;;;;;27.30;10.65;;;;;;;8.12;47.46;101703.44;4983502;28;20069;-81
2021/12/23 00:45:16;;;;;;;17.95;11.27;;;;;;;8.13;49.66;101705.84;4980333;28;20567;-80
2021/12/23 00:48:01;;;;;;;;;;;;;;;7.78;47.78;101699.66;4993072;28;20043;-81
2021/12/23 00:50:47;;;;;;;16.90;10.25;;;;;;;7.75;48.65;101695.63;4994263;28;20371;-81
2021/12/23 00:53:38;;;;;;;16.73;11.43;;;;;;;7.64;47.88;101689.41;4985203;28;20045;-81
2021/12/23 00:56:23;;;;;;;23.63;13.02;;;;;;;7.63;48.66;101690.47;4987438;28;20046;-82
2021/12/23 00:59:09;;;;;;;15.13;9.20;;;;;;;7.44;48.16;101684.00;4986403;28;20043;-81
2021/12/23 01:01:55;;;;;;;24.15;12.18;;;;;;;7.35;47.24;101690.22;4988417;28;20054;-81
2021/12/23 01:04:40;;;;;;;20.30;12.98;;;;;;;7.24;48.31;101695.59;4987398;28;20518;-81
2021/12/23 01:07:24;;;;;;;15.18;10.63;;;;;;;7.11;48.57;101689.91;4990040;28;20043;-81
2021/12/23 01:10:10;;;;;;;16.23;13.35;;;;;;;7.26;50.24;101687.25;4987825;28;20054;-81
2021/12/23 01:13:03;;;;;;;22.67;13.32;;;;;;;7.66;52.60;101698.06;4987788;28;20480;-81
2021/12/23 01:16:00;;;;;;;19.88;13.88;;;;;;;7.64;52.09;101702.94;4989639;28;20034;-81
2021/12/23 01:18:52;;;;;;;22.17;15.35;;;;;;;7.48;50.39;101701.31;4989767;28;20050;-82
2021/12/23 01:21:36;;;;;;;17.92;12.02;;;;;;;8.00;54.42;101708.31;4987774;28;20045;-82
2021/12/23 01:24:26;;;;;;;23.80;11.90;;;;;;;8.08;54.85;101705.03;4988914;28;20046;-81
2021/12/23 01:27:11;;;;;;;21.33;14.02;;;;;;;7.91;52.23;101702.66;5004639;28;20066;-81
2021/12/23 01:30:01;;;;;;;19.60;12.18;;;;;;;7.81;51.23;101699.94;4990682;28;20061;-80
2021/12/23 01:32:49;;;;;;;26.10;16.02;;;;;;;7.80;51.55;101695.63;4985303;28;20042;-81
2021/12/23 01:35:34;;;;;;;21.67;13.98;;;;;;;7.92;53.58;101695.34;4988421;28;20050;-82
2021/12/23 01:38:19;;;;;;;23.88;15.05;;;;;;;7.57;50.58;101696.16;5000329;28;20045;-81
2021/12/23 01:41:04;;;;;;;19.92;12.75;;;;;;;7.25;49.99;101685.59;4992146;28;20054;-82
2021/12/23 01:43:50;;;;;;;28.48;16.48;;;;;;;7.32;48.40;101689.66;4989739;28;20050;-81
2021/12/23 01:46:35;;;;;;;25.73;12.95;;;;;;;7.31;51.70;101695.34;4994058;28;20047;-81
2021/12/23 01:49:20;;;;;;;22.67;13.70;;;;;;;7.23;50.41;101690.47;4992394;28;20042;-80
2021/12/23 01:52:06;;;;;;;22.25;14.55;;;;;;;6.99;50.35;101686.63;5000340;28;20041;-81
2021/12/23 01:54:51;;;;;;;21.25;13.55;;;;;;;6.97;51.16;101676.09;5003918;28;20061;-80
2021/12/23 01:57:39;;;;;;;;;;;;;;;6.93;50.00;101679.59;4993566;28;20058;-81
2021/12/23 02:00:27;;;;;;;23.80;14.88;;;;;;;6.82;49.25;101676.03;4990108;28;19913;-81
2021/12/23 02:03:12;;;;;;;24.40;15.20;;;;;;;6.77;51.61;101676.84;4978775;28;20043;-81
2021/12/23 02:05:57;;;;;;;20.70;13.98;;;;;;;6.85;52.19;101670.13;4991128;28;20417;-81
2021/12/23 02:08:44;;;;;;;15.25;11.60;;;;;;;6.88;52.79;101673.09;4969801;28;20615;-82
2021/12/23 02:11:29;;;;;;;24.23;14.82;;;;;;;6.87;52.12;101674.16;4984913;28;20050;-81
2021/12/23 02:14:14;;;;;;;15.38;10.65;;;;;;;6.59;50.94;101666.53;4991242;28;20054;-81
2021/12/23 02:16:59;;;;;;;15.88;10.65;;;;;;;6.57;51.64;101668.69;4989053;28;20050;-81
2021/12/23 02:19:44;;;;;;;25.33;14.43;;;;;;;6.71;50.53;101663.56;4988428;28;20054;-81
2021/12/23 02:22:29;;;;;;;17.30;11.13;;;;;;;6.55;50.95;101659.22;4981804;28;20054;-81
2021/12/23 02:25:15;;;;;;;21.75;12.48;;;;;;;6.52;52.07;101665.97;4989507;28;20058;-81
2021/12/23 02:28:07;;;;;;;25.40;15.93;;;;;;;6.59;51.34;101665.72;4987091;28;20426;-81
2021/12/23 02:30:52;;;;;;;25.48;15.80;;;;;;;6.65;49.15;101662.78;4990635;28;20054;-80
2021/12/23 02:33:37;;;;;;;23.35;12.23;;;;;;;6.72;49.85;101660.63;4989192;28;20518;-81
2021/12/23 02:36:22;;;;;;;18.60;11.73;;;;;;;6.64;50.63;101663.84;4986339;28;20046;-81
2021/12/23 02:39:07;;;;;;;18.35;12.18;;;;;;;6.80;50.04;101653.91;4997918;28;20050;-82
2021/12/23 02:41:53;;;;;;;20.75;12.88;;;;;;;7.11;48.90;101654.75;4989682;28;20061;-81
2021/12/23 02:44:38;;;;;;;27.90;16.92;;;;;;;7.05;48.46;101645.00;4992650;28;20057;-81
2021/12/23 02:47:23;;;;;;;20.90;12.75;;;;;;;7.05;48.87;101643.13;4990818;28;20054;-81
2021/12/23 02:50:09;;;;;;;20.90;13.25;;;;;;;6.94;49.35;101646.06;4988603;28;20053;-81
2021/12/23 02:52:54;;;;;;;23.98;16.52;;;;;;;6.79;49.24;101636.84;4987083;28;20049;-81
2021/12/23 02:55:39;;;;;;;19.13;13.02;;;;;;;6.72;49.84;101638.19;4991656;28;20046;-80
2021/12/23 02:58:24;;;;;;;19.40;12.82;;;;;;;6.35;51.39;101636.44;4989479;28;20062;-81
2021/12/23 03:01:09;;;;;;;26.55;16.45;;;;;;;6.46;51.58;101640.00;4987117;28;20050;-80
2021/12/23 03:03:55;;;;;;;20.90;13.15;;;;;;;6.47;50.19;101633.53;4990662;28;20062;-81
2021/12/23 03:06:40;;;;;;;29.92;15.50;;;;;;;6.45;51.68;101643.75;4988624;28;20038;-81
2021/12/23 03:09:25;;;;;;;21.65;11.73;;;;;;;6.43;51.34;101627.84;4987082;28;20050;-81
2021/12/23 03:12:10;;;;;;;21.30;12.95;;;;;;;6.30;51.83;101625.63;4990659;28;20049;-81
2021/12/23 03:14:55;;;;;;;16.65;11.90;;;;;;;7.03;56.07;101633.66;4989364;28;20058;-81
2021/12/23 03:17:40;;;;;;;18.85;12.80;;;;;;;6.93;54.93;101631.75;4987177;28;20046;-81
2021/12/23 03:20:25;;;;;;;24.48;16.15;;;;;;;6.71;53.43;101618.44;4986890;28;20049;-81
2021/12/23 03:23:09;;;;;;;27.35;16.67;;;;;;;6.58;53.92;101618.97;4989339;28;20053;-80
2021/12/23 03:25:55;;;;;;;26.33;11.88;;;;;;;6.59;53.70;101623.28;4987699;28;20057;-81
2021/12/23 03:28:40;;;;;;;21.17;13.32;;;;;;;6.66;52.96;101629.25;4977117;28;20034;-81
2021/12/23 03:31:25;;;;;;;30.17;15.77;;;;;;;6.62;53.22;101628.16;4989009;28;20046;-81
2021/12/23 03:34:10;;;;;;;22.98;13.75;;;;;;;6.69;50.66;101623.31;4987577;28;20058;-80
2021/12/23 03:36:55;;;;;;;32.03;15.43;;;;;;;6.36;51.02;101621.03;4991579;28;20039;-81
2021/12/23 03:39:40;;;;;;;;;;;;;;;6.52;53.18;101624.63;4988802;28;20045;-80
2021/12/23 03:42:24;;;;;;;24.88;15.95;;;;;;;6.10;52.51;101608.50;4987622;28;19914;-81
2021/12/23 03:45:09;;;;;;;27.30;16.80;;;;;;;6.43;50.78;101610.81;4985167;28;20053;-80
2021/12/23 03:47:54;;;;;;;25.05;14.07;;;;;;;6.42;50.37;101612.69;4990393;28;20062;-81
2021/12/23 03:50:40;;;;;;;22.00;13.70;;;;;;;6.45;50.27;101609.47;4986348;28;20053;-81
2021/12/23 03:53:24;;;;;;;28.73;17.67;;;;;;;6.33;49.94;101602.69;4985814;28;20069;-81
2021/12/23 03:56:10;;;;;;;21.77;13.70;;;;;;;6.28;49.99;101594.56;4989175;28;20035;-81
2021/12/23 03:58:55;;;;;;;37.55;18.02;;;;;;;6.42;48.80;101611.88;4987787;28;20413;-81
2021/12/23 04:01:40;;;;;;;17.63;12.27;;;;;;;6.23;49.14;101597.25;4986278;28;20049;-81
2021/12/23 04:04:25;;;;;;;28.48;13.98;;;;;;;5.97;49.87;101605.22;4989544;28;20049;-81
2021/12/23 04:07:10;;;;;;;21.40;12.65;;;;;;;6.03;50.45;101589.88;4986653;28;20039;-81
2021/12/23 04:09:55;;;;;;;22.27;13.68;;;;;;;6.20;49.38;101603.16;4985633;28;20062;-80
2021/12/23 04:12:40;;;;;;;20.23;13.53;;;;;;;6.38;49.34;101600.00;4987247;28;20036;-81
2021/12/23 04:15:25;;;;;;;24.23;16.35;;;;;;;6.51;48.79;101595.97;4989431;28;20274;-80
2021/12/23 04:18:10;;;;;;;13.48;10.27;;;;;;;6.15;49.80;101586.94;4997022;28;20038;-80
2021/12/23 04:20:55;;;;;;;16.05;11.30;;;;;;;6.35;49.96;101595.09;4985588;28;20058;-81
2021/12/23 04:23:40;;;;;;;28.67;14.98;;;;;;;6.47;49.59;101584.88;4987479;28;20069;-80
2021/12/23 04:26:25;;;;;;;24.08;14.98;;;;;;;6.61;47.87;101582.47;4986544;28;20058;-82
2021/12/23 04:29:10;;;;;;;26.33;14.65;;;;;;;6.63;47.02;101586.56;4994436;28;20083;-81
2021/12/23 04:31:55;;;;;;;25.60;15.68;;;;;;;6.19;47.47;101585.34;4992805;28;20049;-81
2021/12/23 04:34:40;;;;;;;22.75;14.48;;;;;;;6.39;48.61;101588.13;4990486;28;20050;-81
2021/12/23 04:37:25;;;;;;;21.73;13.45;;;;;;;6.60;46.88;101587.09;4993851;28;20054;-81
2021/12/23 04:40:12;;;;;;;23.90;14.80;;;;;;;6.32;47.08;101579.44;4977925;28;20042;-81
2021/12/23 04:42:57;;;;;;;25.80;17.63;;;;;;;6.30;47.38;101595.91;4982819;28;20542;-80
2021/12/23 04:45:42;;;;;;;21.77;14.23;;;;;;;6.23;47.12;101581.84;4993505;28;20042;-81
2021/12/23 04:48:27;;;;;;;33.58;21.20;;;;;;;6.28;47.71;101579.16;4991840;28;20432;-81
2021/12/23 04:51:13;;;;;;;23.70;13.93;;;;;;;6.24;47.60;101583.47;4990070;28;20043;-81
2021/12/23 04:53:58;;;;;;;23.75;15.88;;;;;;;5.78;49.97;101584.31;4993875;28;20046;-81
2021/12/23 04:56:43;;;;;;;16.70;12.48;;;;;;;5.83;49.56;101585.16;4992507;28;20046;-81
2021/12/23 04:59:28;;;;;;;16.05;11.40;;;;;;;5.92;49.57;101578.22;4991018;28;20047;-81
2021/12/23 05:02:13;;;;;;;17.65;12.57;;;;;;;6.15;48.38;101570.72;4988700;28;20050;-80
2021/12/23 05:04:58;;;;;;;20.20;13.55;;;;;;;6.00;49.15;101563.38;4991775;28;20051;-81
2021/12/23 05:07:44;;;;;;;15.18;11.30;;;;;;;6.10;48.98;101559.91;4990127;28;20046;-80
2021/12/23 05:10:29;;;;;;;20.88;14.75;;;;;;;6.15;48.67;101557.22;4986369;28;20081;-81
2021/12/23 05:13:14;;;;;;;15.57;11.38;;;;;;;5.79;49.51;101559.75;4991306;28;20051;-81
2021/12/23 05:15:59;;;;;;;21.15;11.77;;;;;;;5.64;50.79;101565.06;4998984;28;20053;-81
2021/12/23 05:18:45;;;;;;;17.67;11.82;;;;;;;5.71;50.23;101568.34;4988936;28;20039;-80
2021/12/23 05:21:30;;;;;;;23.83;14.77;;;;;;;5.48;50.75;101560.69;4992914;28;20538;-80
2021/12/23 05:24:15;;;;;;;22.30;12.88;;;;;;;5.42;51.63;101564.41;4983809;28;20054;-81
2021/12/23 05:27:00;;;;;;;17.23;11.45;;;;;;;5.63;51.17;101566.16;4991964;28;20050;-81
2021/12/23 05:29:45;;;;;;;17.55;10.68;;;;;;;5.59;50.38;101565.03;4989785;28;20053;-81
2021/12/23 05:32:30;;;;;;;17.98;12.13;;;;;;;5.40;51.91;101555.75;4991193;28;20052;-80
2021/12/23 05:35:17;;;;;;;17.90;11.20;;;;;;;5.94;55.81;101567.94;4982099;28;20047;-81
2021/12/23 05:38:02;;;;;;;22.33;14.95;;;;;;;5.83;53.72;101568.97;4983571;28;20046;-80
2021/12/23 05:40:47;;;;;;;18.73;11.32;;;;;;;5.77;52.82;101561.09;4984867;28;20042;-81
2021/12/23 05:43:32;;;;;;;16.90;11.27;;;;;;;5.88;54.64;101565.50;4984653;28;20054;-81
2021/12/23 05:46:16;;;;;;;17.60;11.60;;;;;;;5.84;52.42;101570.56;4986539;28;20854;-80
2021/12/23 05:49:02;;;;;;;18.05;11.85;;;;;;;6.04;52.43;101566.38;4990282;28;20045;-81
2021/12/23 05:51:46;;;;;;;18.40;11.57;;;;;;;6.07;51.71;101560.44;4983481;28;20045;-81
2021/12/23 05:54:32;;;;;;;15.77;10.85;;;;;;;6.15;52.04;101568.03;4993542;28;20111;-81
2021/12/23 05:57:17;;;;;;;21.52;14.32;;;;;;;6.08;53.09;101567.47;4984828;28;20034;-81
2021/12/23 06:00:07;;;;;;;24.85;15.32;;;;;;;6.20;51.43;101570.75;4979875;28;20276;-82
2021/12/23 06:02:56;;;;;;;27.95;15.38;;;;;;;6.27;51.70;101565.91;4979145;28;20054;-78
2021/12/23 06:05:40;;;;;;;24.30;15.30;;;;;;;6.27;50.52;101568.63;4975842;28;20411;-79
2021/12/23 06:08:25;;;;;;;22.35;13.90;;;;;;;6.11;49.98;101561.53;4973035;28;20046;-79
2021/12/23 06:11:10;;;;;;;20.35;10.73;;;;;;;6.31;49.36;101562.41;4976190;28;20046;-78
2021/12/23 06:13:55;;;;;;;20.08;11.93;;;;;;;6.35;49.10;101562.69;4975045;28;20539;-78
2021/12/23 06:16:40;;;;;;;17.00;11.18;;;;;;;6.13;50.44;101565.63;4975736;28;20522;-78
2021/12/23 06:19:25;;;;;;;20.77;16.92;;;;;;;6.20;49.93;101559.94;4978166;28;20046;-79
2021/12/23 06:22:10;;;;;;;17.17;11.57;;;;;;;6.15;49.67;101557.22;4981233;28;20057;-79
2021/12/23 06:24:55;;;;;;;16.52;10.45;;;;;;;6.55;51.19;101562.78;4982143;28;20046;-79
2021/12/23 06:27:40;;;;;;;;;;;;;;;6.83;46.00;101561.44;4995117;28;20045;-80
2021/12/23 06:30:25;;;;;;;19.45;11.10;;;;;;;6.36;46.77;101558.91;4984311;28;19914;-80
2021/12/23 06:33:11;;;;;;;14.82;11.50;;;;;;;6.21;48.53;101561.56;4981968;28;20441;-80
2021/12/23 06:35:56;;;;;;;21.40;12.90;;;;;;;6.03;49.23;101562.06;4971786;28;20428;-78
2021/12/23 06:38:42;;;;;;;13.85;10.38;;;;;;;6.02;50.16;101558.53;4987100;28;20039;-79
2021/12/23 06:41:27;;;;;;;24.85;14.25;;;;;;;6.40;49.70;101550.00;4968622;28;20042;-78
2021/12/23 06:44:11;;;;;;;27.97;15.20;;;;;;;6.04;48.69;101544.78;4974253;28;20054;-78
2021/12/23 06:46:56;;;;;;;21.08;13.25;;;;;;;6.01;48.63;101541.53;4983193;28;20301;-78
2021/12/23 06:49:41;;;;;;;17.65;11.57;;;;;;;5.98;49.11;101547.47;4979208;28;20463;-78
2021/12/23 06:52:26;;;;;;;19.35;13.25;;;;;;;6.07;49.22;101552.34;4979453;28;20042;-78
2021/12/23 06:55:12;;;;;;;20.02;12.43;;;;;;;6.06;49.00;101543.44;4979821;28;20047;-78
2021/12/23 06:57:57;;;;;;;27.45;16.08;;;;;;;6.05;49.09;101535.59;4977020;28;20038;-78
2021/12/23 07:00:42;;;;;;;22.20;11.82;;;;;;;5.93;49.68;101531.25;4974367;28;20057;-77
2021/12/23 07:03:41;;;;;;;21.67;12.52;;;;;;;5.92;49.54;101537.72;4975228;28;20039;-78
2021/12/23 07:06:26;;;;;;;28.70;15.95;;;;;;;6.01;48.85;101538.84;4980767;28;20045;-79
2021/12/23 07:09:10;;;;;;;18.45;11.63;;;;;;;5.77;50.08;101534.94;4985654;28;20046;-79
2021/12/23 07:11:55;;;;;;;19.30;14.38;;;;;;;5.97;50.88;101542.31;4984855;28;20053;-78
2021/12/23 07:14:40;;;;;;;27.48;12.63;;;;;;;5.97;49.47;101539.63;4983469;28;20050;-78
2021/12/23 07:17:24;;;;;;;19.13;11.93;;;;;;;5.95;49.80;101531.78;4981832;28;20053;-78
2021/12/23 07:20:10;;;;;;;24.20;11.52;;;;;;;5.93;49.90;101533.97;5000227;28;20049;-78
2021/12/23 07:22:56;;;;;;;32.28;14.30;;;;;;;5.91;49.97;101533.41;4975532;28;20251;-78
2021/12/23 07:25:41;;;;;;;24.10;13.45;;;;;;;5.48;50.42;101529.13;4983400;28;20049;-79
2021/12/23 07:28:26;;;;;;;18.52;11.43;;;;;;;5.78;49.97;101525.75;4998687;28;20127;-78
2021/12/23 07:31:11;;;;;;;19.52;11.63;;;;;;;5.69;51.47;101516.53;4983439;28;20526;-78
2021/12/23 07:33:56;;;;;;;22.33;10.93;;;;;;;5.71;50.79;101527.88;4984591;28;20053;-78
2021/12/23 07:36:42;;;;;;;25.92;14.55;;;;;;;5.64;50.66;101526.50;4983319;28;20272;-78
2021/12/23 07:39:27;;;;;;;26.55;14.43;;;;;;;5.56;51.01;101517.00;4983056;28;20046;-78
2021/12/23 07:42:15;;;;;;;18.88;12.52;;;;;;;5.68;51.28;101520.31;4985573;28;20471;-78
2021/12/23 07:45:02;;;;;;;26.05;14.68;;;;;;;5.76;51.00;101516.28;4989126;28;20057;-79
2021/12/23 07:47:47;;;;;;;26.10;15.10;;;;;;;5.62;52.84;101510.56;4984770;28;20039;-79
2021/12/23 07:50:32;;;;;;;21.15;13.35;;;;;;;5.68;53.97;101509.53;4983399;28;20053;-79
2021/12/23 07:53:17;;;;;;;19.80;11.85;;;;;;;5.89;53.27;101515.84;4997477;28;20045;-79
2021/12/23 07:56:01;;;;;;;22.58;14.23;;;;;;;5.92;53.23;101508.03;5005337;28;20039;-79
2021/12/23 07:58:46;;;;;;;18.27;11.43;;;;;;;5.93;53.67;101509.66;5001489;28;20065;-79
2021/12/23 08:01:31;;;;;;;18.77;11.80;;;;;;;5.91;54.44;101509.09;4986624;28;20030;-79
2021/12/23 08:04:16;;;;;;;19.92;11.95;;;;;;;5.93;54.78;101498.88;5001117;28;20041;-78
2021/12/23 08:07:02;;;;;;;17.17;11.23;;;;;;;5.89;54.48;101503.16;4995378;28;20080;-79
2021/12/23 08:09:47;;;;;;;24.02;16.13;;;;;;;6.00;54.35;101501.28;5005119;28;20042;-78
2021/12/23 08:12:32;;;;;;;25.77;15.40;;;;;;;5.96;56.06;101505.59;5005118;28;20050;-78
2021/12/23 08:15:17;;;;;;;22.17;12.75;;;;;;;6.10;58.47;101514.81;5003823;28;20506;-79
2021/12/23 08:18:01;;;;;;;29.80;16.65;;;;;;;6.20;59.36;101511.34;5002093;28;20045;-78
2021/12/23 08:20:46;;;;;;;21.95;13.60;;;;;;;6.27;59.72;101518.13;5001559;28;20046;-79
2021/12/23 08:23:31;;;;;;;17.40;11.52;;;;;;;6.36;61.10;101516.50;5002836;28;20046;-78
2021/12/23 08:26:16;;;;;;;22.98;14.68;;;;;;;6.60;62.22;101522.25;5001592;28;20053;-79
2021/12/23 08:29:02;;;;;;;29.33;15.65;;;;;;;6.72;62.80;101514.66;5006990;28;20065;-79
2021/12/23 08:31:53;;;;;;;22.27;13.77;;;;;;;6.51;61.23;101509.50;4999559;28;20045;-79
2021/12/23 08:34:38;;;;;;;18.50;11.93;;;;;;;6.72;63.07;101514.66;4996770;28;20046;-78
2021/12/23 08:37:23;;;;;;;12.55;7.68;;;;;;;7.20;65.10;101509.78;4979775;28;20039;-78
2021/12/23 08:40:08;;;;;;;24.38;12.00;;;;;;;6.81;62.39;101507.63;4977894;28;20053;-78
2021/12/23 08:42:56;;;;;;;18.45;10.98;;;;;;;6.97;64.18;101511.16;4975000;28;20047;-78
2021/12/23 08:45:41;;;;;;;25.27;13.13;;;;;;;7.08;64.93;101509.25;4969097;28;21445;-79
2021/12/23 08:48:26;;;;;;;18.17;10.07;;;;;;;7.18;65.03;101507.34;4976165;28;20042;-79
2021/12/23 08:51:10;;;;;;;22.13;12.40;;;;;;;7.00;61.32;101499.81;4978103;28;20042;-78
2021/12/23 09:06:23;;;;;;;23.05;15.25;;;;;;;6.64;60.65;101490.91;4971528;28;20039;-78
2021/12/23 09:09:08;;;;;;;18.13;10.25;;;;;;;6.73;61.91;101499.28;4973608;28;20039;-78
2021/12/23 09:11:53;;;;;;;18.63;10.88;;;;;;;6.72;63.00;101500.34;4973923;28;20049;-78
2021/12/23 09:14:38;;;;;;;19.05;11.15;;;;;;;6.79;63.12;101511.72;4977109;28;20053;-78
2021/12/23 09:17:23;;;;;;;16.40;10.07;;;;;;;6.94;63.72;101508.19;4972730;28;20037;-78
2021/12/23 09:20:10;;;;;;;24.20;13.38;;;;;;;6.64;59.96;101509.00;4974415;28;20046;-79
2021/12/23 09:22:55;;;;;;;26.55;17.10;;;;;;;6.30;57.58;101504.06;4982665;28;20053;-78
2021/12/23 09:25:40;;;;;;;18.75;11.07;;;;;;;6.71;60.98;101512.22;4979975;28;20419;-79
2021/12/23 09:28:51;;;;;;;22.58;13.73;;;;;;;6.36;57.04;101508.41;4987184;28;20491;-79
2021/12/23 09:35:05;;;;;;;32.25;17.90;;;;;;;5.66;57.23;101516.25;4980119;28;20050;-78
2021/12/23 09:37:51;;;;;;;32.97;18.35;;;;;;;5.43;57.54;101517.50;4983962;28;20503;-79
2021/12/23 09:40:38;;;;;;;30.48;18.25;;;;;;;5.25;58.53;101510.63;4980161;28;20066;-80
2021/12/23 09:43:26;;;;;;;30.25;18.33;;;;;;;5.62;58.45;101502.47;4978381;28;20049;-79
2021/12/23 09:46:14;;;;;;;29.98;17.63;;;;;;;5.44;58.86;101502.91;4983465;28;20050;-78
2021/12/23 09:49:00;;;;;;;27.40;17.13;;;;;;;5.60;60.87;101507.31;4981339;28;20046;-79
2021/12/23 09:51:46;;;;;;;30.65;18.05;;;;;;;5.63;59.87;101492.50;4979552;28;20059;-79
2021/12/23 09:54:38;;;;;;;30.80;18.85;;;;;;;5.79;59.98;101494.97;4982838;28;20055;-78
2021/12/23 09:57:22;;;;;;;31.15;17.38;;;;;;;5.59;59.71;101500.28;4981568;28;20415;-79
2021/12/23 10:00:11;;;;;;;29.98;16.92;;;;;;;5.97;61.90;101513.44;4979835;28;20050;-79
2021/12/23 10:02:57;;;;;;;24.88;14.30;;;;;;;6.48;64.26;101505.47;4984524;28;20427;-78
2021/12/23 10:05:43;;;;;;;22.92;12.32;;;;;;;6.85;66.25;101503.34;4987500;28;20043;-78
2021/12/23 10:08:29;;;;;;;32.95;19.63;;;;;;;6.62;64.69;101503.03;4974734;28;20081;-79
2021/12/23 10:38:51;;;;;;;31.73;18.63;;;;;;;6.74;62.65;101474.69;4982688;28;20050;-78
2021/12/23 10:41:36;;;;;;;29.92;18.90;;;;;;;6.75;62.63;101473.59;4980924;28;20042;-78
2021/12/23 10:44:30;;;;;;;22.63;15.27;;;;;;;6.97;65.26;101477.88;4984461;28;20057;-78
2021/12/23 10:48:04;;;;;;;36.88;19.42;;;;;;;6.72;62.66;101471.44;4983854;28;20049;-78
2021/12/23 10:50:56;;;;;;;32.75;18.90;;;;;;;6.66;63.51;101450.88;4963561;28;20046;-77
2021/12/23 10:53:52;;;;;;;29.52;17.70;;;;;;;6.90;63.44;101461.16;4979649;28;20054;-78
2021/12/23 10:59:40;;;;;;;33.80;18.20;;;;;;;6.99;63.85;101462.22;4978776;28;20045;-78
2021/12/23 11:02:34;;;;;;;22.37;13.50;;;;;;;6.84;62.04;101450.34;4981817;28;20039;-78
2021/12/23 11:05:25;;;;;;;27.50;16.17;;;;;;;6.73;63.49;101450.63;4984026;28;20282;-78
2021/12/23 11:11:33;;;;;;;25.42;15.35;;;;;;;7.05;65.99;101447.63;4985367;28;20058;-79
2021/12/23 11:41:34;;;;;;;27.25;17.23;;;;;;;7.18;62.49;101392.94;4981185;28;20050;-78
2021/12/23 11:44:20;;;;;;;26.40;17.85;;;;;;;7.25;62.89;101388.06;4978289;28;20452;-78
2021/12/23 11:47:12;;;;;;;30.52;18.15;;;;;;;7.05;62.21;101388.94;4986181;28;20042;-78
2021/12/23 11:49:57;;;;;;;27.73;17.45;;;;;;;7.02;62.19;101389.47;4982343;28;20050;-78
2021/12/23 11:52:42;;;;;;;22.75;14.95;;;;;;;7.03;60.67;101374.06;4985087;28;20046;-78
2021/12/23 11:55:27;;;;;;;18.88;12.50;;;;;;;7.15;63.22;101363.75;4983825;28;20042;-78
2021/12/23 11:58:14;;;;;;;22.75;13.73;;;;;;;7.03;62.39;101368.66;4981514;28;20041;-78
2021/12/23 12:01:20;;;;;;;29.55;17.88;;;;;;;7.07;62.61;101373.22;4985237;28;20053;-78
2021/12/23 12:04:08;;;;;;;30.92;18.55;;;;;;;6.92;62.10;101365.16;4982290;28;20066;-77
2021/12/23 12:06:55;;;;;;;31.40;18.52;;;;;;;7.06;62.43;101370.81;4976902;28;20050;-78
2021/12/23 12:10:01;;;;;;;34.90;17.48;;;;;;;7.14;61.67;101356.72;4982363;28;20038;-78
2021/12/23 12:13:07;;;;;;;;;;;;;;;7.24;61.84;101359.38;4981207;28;20046;-78
2021/12/23 12:15:53;;;;;;;24.00;14.48;;;;;;;7.27;58.83;101337.19;4977374;28;19914;-78
2021/12/23 12:31:01;;;;;;;41.50;19.52;;;;;;;5.57;63.97;101319.03;4972606;28;20051;-78
2021/12/23 12:34:19;;;;;;;36.55;20.20;;;;;;;5.83;63.00;101317.16;4978327;28;20047;-78
2021/12/23 12:37:07;;;;;;;38.72;20.88;;;;;;;5.93;63.46;101312.63;4955260;28;20503;-78
2021/12/23 12:39:52;;;;;;;37.92;20.63;;;;;;;5.74;64.05;101297.97;4964645;28;20046;-79
2021/12/23 12:42:43;;;;;;;28.73;17.17;;;;;;;5.96;63.69;101298.56;4982499;28;20207;-79
2021/12/23 12:45:28;;;;;;;39.63;19.02;;;;;;;6.59;61.41;101296.34;4968984;28;20069;-78
2021/12/23 12:48:13;;;;;;;34.67;15.95;;;;;;;6.61;61.31;101302.28;4953540;28;20051;-77
2021/12/23 12:50:58;;;;;;;32.40;16.92;;;;;;;6.31;62.22;101307.72;4966867;28;20050;-77
2021/12/23 12:54:02;;;;;;;38.40;21.55;;;;;;;6.06;62.41;101294.25;4970808;28;20047;-77
2021/12/23 12:56:55;;;;;;;39.67;22.85;;;;;;;5.84;64.00;101302.59;4974261;28;20042;-77
2021/12/23 12:59:44;;;;;;;42.65;20.58;;;;;;;5.61;64.55;101298.53;4972274;28;20039;-77
2021/12/23 13:02:33;;;;;;;34.45;19.63;;;;;;;5.58;63.49;101288.28;4973179;28;20408;-77
2021/12/23 13:05:25;;;;;;;41.53;20.58;;;;;;;5.84;63.68;101286.41;4968068;28;20042;-80
2021/12/23 13:08:35;;;;;;;41.30;21.10;;;;;;;5.62;64.78;101286.66;4957020;28;20043;-80
2021/12/23 13:11:44;;;;;;;35.80;21.00;;;;;;;7.05;61.01;101279.97;4967187;28;20050;-80
2021/12/23 13:15:15;;;;;;;41.15;22.05;;;;;;;8.11;56.23;101265.69;4977855;28;20073;-79
2021/12/23 13:18:32;;;;;;;38.60;19.92;;;;;;;9.83;52.12;101269.75;4975369;28;20053;-80
2021/12/23 13:21:21;;;;;;;43.63;17.13;;;;;;;10.05;50.97;101266.41;4967936;28;20043;-77
2021/12/23 13:24:06;;;;;;;34.40;19.58;;;;;;;8.76;53.97;101266.91;4979508;28;20050;-79
2021/12/23 13:26:53;;;;;;;26.77;15.40;;;;;;;9.39;53.43;101270.16;4978818;28;20050;-80
2021/12/23 13:29:41;;;;;;;35.28;19.00;;;;;;;10.54;49.76;101273.16;4965493;28;20049;-80
2021/12/23 13:32:25;;;;;;;34.63;19.98;;;;;;;9.73;50.21;101260.97;4968769;28;20042;-80
2021/12/23 13:35:13;;;;;;;25.85;14.38;;;;;;;9.15;52.35;101266.69;4978842;28;20431;-80
2021/12/23 13:37:58;;;;;;;35.88;18.95;;;;;;;8.24;54.31;101266.91;4996048;28;20518;-80
2021/12/23 13:40:47;;;;;;;35.08;20.20;;;;;;;7.28;58.03;101263.88;4969629;28;20069;-80
2021/12/23 13:43:32;;;;;;;37.55;19.70;;;;;;;7.68;56.85;101261.97;4975807;28;20059;-81
2021/12/23 13:46:17;;;;;;;30.45;16.83;;;;;;;6.64;60.63;101263.91;4974529;28;20046;-80
2021/12/23 13:49:05;;;;;;;38.50;20.38;;;;;;;6.00;63.06;101271.84;4964675;28;20522;-80
2021/12/23 13:51:51;;;;;;;42.20;22.15;;;;;;;5.69;64.14;101270.22;4964485;28;20050;-80
2021/12/23 13:54:39;;;;;;;41.95;22.08;;;;;;;5.44;65.65;101265.56;4968669;28;20053;-80
2021/12/23 13:57:25;;;;;;;37.72;22.30;;;;;;;5.26;66.10;101276.88;4951553;28;20416;-80
2021/12/23 14:00:28;;;;;;;40.08;21.65;;;;;;;4.94;65.60;101277.03;4977196;28;20061;-80
2021/12/23 14:03:15;;;;;;;42.03;24.10;;;;;;;4.77;66.47;101277.25;4952511;28;20046;-80
2021/12/23 14:06:01;;;;;;;51.28;22.83;;;;;;;4.63;67.34;101278.78;4979007;28;20505;-80
2021/12/23 14:08:46;;;;;;;46.65;24.65;;;;;;;4.55;67.62;101272.03;4964850;28;20047;-79
2021/12/23 14:11:31;;;;;;;32.80;18.73;;;;;;;4.21;69.07;101279.63;4966178;28;20039;-80
2021/12/23 14:14:19;;;;;;;45.20;24.13;;;;;;;4.26;68.55;101276.16;4964358;28;20050;-81
2021/12/23 14:17:29;;;;;;;50.42;25.63;;;;;;;4.23;69.58;101276.66;4962627;28;20046;-82
2021/12/23 14:23:45;;;;;;;46.95;24.10;;;;;;;4.23;68.85;101287.44;4980544;28;20047;-80
2021/12/23 14:26:30;;;;;;;46.47;24.27;;;;;;;4.21;68.80;101274.25;4951302;28;20057;-80
2021/12/23 14:29:15;;;;;;;46.42;25.02;;;;;;;3.91;69.85;101274.03;4979019;28;20051;-80